createdAt,value
2018-09-08T00:00:41.546Z,60.00
2018-09-08T00:03:11.749Z,60.00
2018-09-08T00:05:43.269Z,60.20
2018-09-08T00:08:15.368Z,59.70
2018-09-08T00:10:45.684Z,59.70
2018-09-08T00:13:16.459Z,60.30
2018-09-08T00:15:51.707Z,59.90
2018-09-08T00:18:29.348Z,60.30
2018-09-08T00:21:06.056Z,60.10
2018-09-08T00:23:42.264Z,59.70
2018-09-08T00:26:18.252Z,59.70
2018-09-08T00:28:55.753Z,59.70
2018-09-08T00:31:26.610Z,60.00
2018-09-08T00:33:57.380Z,59.80
2018-09-08T00:36:28.183Z,60.20
2018-09-08T00:38:59.502Z,60.20
2018-09-08T00:41:29.746Z,60.00
2018-09-08T00:43:59.996Z,60.20
2018-09-08T00:46:30.195Z,60.40
2018-09-08T00:49:00.478Z,60.40
2018-09-08T00:51:30.608Z,60.40
2018-09-08T00:54:01.374Z,60.40
2018-09-08T00:56:31.652Z,60.20
2018-09-08T00:59:03.208Z,60.20
2018-09-08T01:01:35.044Z,60.20
2018-09-08T01:04:05.762Z,60.20
2018-09-08T01:06:36.338Z,60.20
2018-09-08T01:09:08.383Z,60.10
2018-09-08T01:11:38.481Z,60.50
2018-09-08T01:14:08.998Z,60.50
2018-09-08T01:16:39.490Z,60.40
2018-09-08T01:19:09.849Z,60.30
2018-09-08T01:21:40.376Z,60.40
2018-09-08T01:24:11.026Z,60.20
2018-09-08T01:26:41.218Z,60.40
2018-09-08T01:29:11.930Z,60.50
2018-09-08T01:31:42.692Z,60.30
2018-09-08T01:34:13.478Z,60.00
2018-09-08T01:36:44.349Z,60.40
2018-09-08T01:39:15.152Z,60.30
2018-09-08T01:41:45.363Z,60.30
2018-09-08T01:44:15.651Z,60.60
2018-09-08T01:46:45.893Z,60.70
2018-09-08T01:49:16.585Z,60.80
2018-09-08T01:51:46.753Z,60.50
2018-09-08T01:54:17.432Z,61.50
2018-09-08T01:56:47.632Z,60.50
2018-09-08T01:59:20.236Z,60.70
2018-09-08T02:01:50.502Z,60.50
2018-09-08T02:04:21.248Z,60.80
2018-09-08T02:06:51.453Z,60.60
2018-09-08T02:09:22.107Z,60.80
2018-09-08T02:11:52.312Z,60.50
2018-09-08T02:14:22.999Z,60.60
2018-09-08T02:16:53.729Z,60.40
2018-09-08T02:19:24.103Z,60.10
2018-09-08T02:21:54.472Z,60.50
2018-09-08T02:24:25.074Z,60.60
2018-09-08T02:26:55.940Z,60.40
2018-09-08T02:29:26.501Z,60.00
2018-09-08T02:31:57.188Z,60.00
2018-09-08T02:34:27.462Z,60.40
2018-09-08T02:36:57.658Z,60.10
2018-09-08T02:39:28.411Z,60.30
2018-09-08T02:41:59.096Z,59.70
2018-09-08T02:44:29.339Z,59.90
2018-09-08T02:46:59.553Z,60.00
2018-09-08T02:50:46.806Z,60.00
2018-09-08T02:53:15.409Z,59.70
2018-09-08T02:55:43.644Z,59.50
2018-09-08T02:58:11.687Z,59.60
2018-09-08T03:00:39.906Z,59.70
2018-09-08T03:03:07.928Z,59.20
2018-09-08T03:05:36.169Z,59.70
2018-09-08T03:08:04.316Z,59.50
2018-09-08T03:10:32.415Z,59.50
2018-09-08T03:13:00.453Z,59.70
2018-09-08T03:15:28.526Z,59.50
2018-09-08T03:17:56.547Z,59.60
2018-09-08T03:20:24.737Z,59.50
2018-09-08T03:22:52.752Z,59.20
2018-09-08T03:25:20.756Z,59.40
2018-09-08T03:27:48.958Z,59.40
2018-09-08T03:30:16.984Z,59.30
2018-09-08T03:32:45.038Z,59.30
2018-09-08T03:35:13.048Z,59.40
2018-09-08T03:37:41.261Z,59.30
2018-09-08T03:40:09.287Z,58.80
2018-09-08T03:42:37.597Z,59.30
2018-09-08T03:45:05.853Z,59.10
2018-09-08T03:47:33.942Z,59.00
2018-09-08T03:50:01.981Z,59.20
2018-09-08T03:52:30.257Z,59.10
2018-09-08T03:54:58.527Z,58.90
2018-09-08T03:57:26.597Z,58.50
2018-09-08T03:59:54.678Z,58.90
2018-09-08T04:02:22.755Z,58.90
2018-09-08T04:04:53.527Z,58.90
2018-09-08T04:07:23.710Z,58.50
2018-09-08T04:09:53.916Z,58.90
2018-09-08T04:12:24.594Z,59.50
2018-09-08T04:14:55.053Z,58.60
2018-09-08T04:17:25.660Z,58.70
2018-09-08T04:19:56.171Z,58.80
2018-09-08T04:22:31.059Z,58.70
2018-09-08T04:25:01.570Z,58.60
2018-09-08T04:27:32.181Z,58.60
2018-09-08T04:30:02.410Z,58.50
2018-09-08T04:32:32.568Z,58.80
2018-09-08T04:35:02.821Z,58.80
2018-09-08T04:37:33.763Z,58.80
2018-09-08T04:40:04.095Z,58.50
2018-09-08T04:42:34.304Z,58.70
2018-09-08T04:45:04.488Z,58.80
2018-09-08T04:47:35.148Z,58.80
2018-09-08T04:50:05.339Z,58.60
2018-09-08T04:52:35.534Z,58.90
2018-09-08T04:55:06.269Z,59.10
2018-09-08T04:57:36.679Z,58.70
2018-09-08T05:00:08.281Z,59.20
2018-09-08T05:02:38.797Z,59.20
2018-09-08T05:05:09.344Z,59.20
2018-09-08T05:07:39.966Z,59.10
2018-09-08T05:10:10.097Z,59.30
2018-09-08T05:12:40.820Z,59.60
2018-09-08T05:15:11.074Z,59.40
2018-09-08T05:17:41.266Z,59.50
2018-09-08T05:20:11.855Z,59.60
2018-09-08T05:22:42.530Z,59.40
2018-09-08T05:25:13.126Z,59.30
2018-09-08T05:27:43.797Z,59.30
2018-09-08T05:30:13.941Z,59.40
2018-09-08T05:32:44.638Z,59.50
2018-09-08T05:35:15.418Z,59.50
2018-09-08T05:37:46.437Z,59.00
2018-09-08T05:40:16.625Z,59.20
2018-09-08T05:42:47.480Z,59.50
2018-09-08T05:45:17.645Z,59.20
2018-09-08T05:47:48.246Z,59.40
2018-09-08T05:50:18.876Z,59.10
2018-09-08T05:52:49.688Z,59.40
2018-09-08T05:55:20.327Z,59.50
2018-09-08T05:57:51.053Z,59.10
2018-09-08T06:00:21.233Z,59.60
2018-09-08T06:02:51.450Z,59.80
2018-09-08T06:05:21.549Z,60.00
2018-09-08T06:07:52.005Z,60.80
2018-09-08T06:10:22.278Z,60.20
2018-09-08T06:12:52.761Z,60.30
2018-09-08T06:15:22.903Z,60.30
2018-09-08T06:17:55.269Z,60.40
2018-09-08T06:20:25.495Z,60.50
2018-09-08T06:22:56.409Z,60.50
2018-09-08T06:25:26.802Z,60.50
2018-09-08T06:27:57.026Z,60.60
2018-09-08T06:30:28.277Z,60.60
2018-09-08T06:33:15.587Z,60.70
2018-09-08T06:35:45.908Z,59.60
2018-09-08T06:38:16.216Z,60.60
2018-09-08T06:40:46.392Z,60.60
2018-09-08T06:43:17.401Z,60.80
2018-09-08T06:45:47.565Z,60.80
2018-09-08T06:48:17.940Z,61.00
2018-09-08T06:50:48.066Z,60.90
2018-09-08T06:53:18.288Z,61.00
2018-09-08T06:55:48.393Z,61.10
2018-09-08T06:58:20.085Z,61.10
2018-09-08T07:00:50.291Z,61.10
2018-09-08T07:03:21.504Z,61.10
2018-09-08T07:05:51.626Z,61.30
2018-09-08T07:08:22.237Z,61.10
2018-09-08T07:10:53.295Z,60.90
2018-09-08T07:13:23.554Z,61.70
2018-09-08T07:15:53.827Z,61.30
2018-09-08T07:18:24.191Z,61.30
2018-09-08T07:20:54.897Z,61.40
2018-09-08T07:23:25.369Z,61.40
2018-09-08T07:25:55.617Z,61.60
2018-09-08T07:28:26.241Z,61.70
2018-09-08T07:30:57.027Z,61.40
2018-09-08T07:33:27.473Z,61.90
2018-09-08T07:35:58.062Z,61.70
2018-09-08T07:38:28.535Z,61.90
2018-09-08T07:41:28.148Z,61.80
2018-09-08T07:44:11.100Z,61.90
2018-09-08T07:46:41.641Z,61.70
2018-09-08T07:49:11.944Z,61.90
2018-09-08T07:51:42.295Z,61.90
2018-09-08T07:54:12.896Z,61.90
2018-09-08T07:56:43.195Z,61.90
2018-09-08T07:59:13.759Z,62.20
2018-09-08T08:01:44.025Z,61.90
2018-09-08T08:04:14.631Z,62.30
2018-09-08T08:06:47.283Z,62.30
2018-09-08T08:09:17.505Z,62.20
2018-09-08T08:11:48.314Z,62.40
2018-09-08T08:14:18.478Z,62.40
2018-09-08T08:16:48.605Z,62.30
2018-09-08T08:19:18.781Z,62.30
2018-09-08T08:21:48.985Z,61.80
2018-09-08T08:24:19.230Z,61.50
2018-09-08T08:26:58.171Z,61.30
2018-09-08T08:29:28.543Z,60.90
2018-09-08T08:31:58.921Z,61.00
2018-09-08T08:34:29.410Z,60.70
2018-09-08T08:37:11.101Z,60.20
2018-09-08T08:39:41.497Z,59.90
2018-09-08T08:42:12.142Z,59.60
2018-09-08T08:44:42.820Z,59.20
2018-09-08T08:47:13.294Z,59.00
2018-09-08T08:49:43.927Z,59.10
2018-09-08T08:52:30.576Z,59.10
2018-09-08T08:55:04.779Z,58.30
2018-09-08T08:57:35.245Z,57.50
2018-09-08T09:00:05.557Z,57.40
2018-09-08T09:02:35.736Z,57.20
2018-09-08T09:05:06.005Z,57.30
2018-09-08T09:07:36.396Z,56.90
2018-09-08T09:10:06.573Z,56.90
2018-09-08T09:12:36.992Z,56.90
2018-09-08T09:15:07.560Z,56.80
2018-09-08T09:17:37.265Z,56.40
2018-09-08T09:20:23.638Z,56.50
2018-09-08T09:23:11.177Z,55.90
2018-09-08T09:25:41.386Z,55.70
2018-09-08T09:28:11.550Z,55.60
2018-09-08T09:30:41.903Z,55.40
2018-09-08T09:33:12.040Z,54.90
2018-09-08T09:35:42.257Z,55.00
2018-09-08T09:38:12.482Z,54.90
2018-09-08T09:40:42.982Z,54.80
2018-09-08T09:43:13.351Z,54.90
2018-09-08T09:45:44.203Z,54.50
2018-09-08T09:48:14.594Z,54.10
2018-09-08T09:50:44.991Z,54.40
2018-09-08T09:53:15.299Z,54.20
2018-09-08T09:55:45.602Z,54.10
2018-09-08T09:58:15.781Z,54.00
2018-09-08T10:00:50.866Z,53.80
2018-09-08T10:03:21.138Z,53.80
2018-09-08T10:05:51.436Z,53.60
2018-09-08T10:08:21.585Z,53.30
2018-09-08T10:10:51.850Z,53.30
2018-09-08T10:13:22.135Z,53.50
2018-09-08T10:15:52.513Z,53.50
2018-09-08T10:18:22.950Z,53.10
2018-09-08T10:20:53.401Z,52.90
2018-09-08T10:23:23.732Z,53.00
2018-09-08T10:25:54.316Z,52.90
2018-09-08T10:28:24.737Z,52.70
2018-09-08T10:30:55.642Z,52.70
2018-09-08T10:33:25.873Z,52.50
2018-09-08T10:35:56.244Z,52.60
2018-09-08T10:38:26.501Z,52.30
2018-09-08T10:40:56.814Z,52.00
2018-09-08T10:43:27.944Z,52.10
2018-09-08T10:45:58.415Z,52.10
2018-09-08T10:48:28.891Z,51.90
2018-09-08T10:51:08.575Z,51.70
2018-09-08T10:53:38.743Z,51.70
2018-09-08T10:56:09.274Z,51.80
2018-09-08T10:58:39.666Z,51.40
2018-09-08T11:01:10.214Z,51.40
2018-09-08T11:03:40.446Z,51.10
2018-09-08T11:06:10.667Z,51.10
2018-09-08T11:08:40.920Z,51.00
2018-09-08T11:11:13.401Z,50.50
2018-09-08T11:13:43.546Z,50.40
2018-09-08T11:16:13.736Z,50.40
2018-09-08T11:18:43.985Z,50.40
2018-09-08T11:21:14.233Z,50.50
2018-09-08T11:23:44.440Z,50.90
2018-09-08T11:26:15.101Z,50.30
2018-09-08T11:28:45.389Z,50.10
2018-09-08T11:31:16.607Z,50.30
2018-09-08T11:33:47.562Z,49.90
2018-09-08T11:36:17.874Z,49.90
2018-09-08T11:38:48.112Z,50.20
2018-09-08T11:41:18.265Z,50.10
2018-09-08T11:43:48.432Z,50.20
2018-09-08T11:46:18.573Z,49.80
2018-09-08T11:48:48.708Z,49.50
2018-09-08T11:51:18.829Z,49.50
2018-09-08T11:53:49.116Z,48.70
2018-09-08T11:56:19.273Z,48.40
2018-09-08T11:58:49.616Z,48.60
2018-09-08T12:01:20.117Z,48.60
2018-09-08T12:03:50.732Z,48.70
2018-09-08T12:06:21.021Z,49.40
2018-09-08T12:08:51.502Z,48.50
2018-09-08T12:11:21.651Z,48.60
2018-09-08T12:13:52.069Z,48.70
2018-09-08T12:16:22.190Z,48.70
2018-09-08T12:18:52.990Z,48.90
2018-09-08T12:21:23.563Z,48.60
2018-09-08T12:23:53.795Z,48.10
2018-09-08T12:26:24.783Z,48.00
2018-09-08T12:28:57.181Z,47.40
2018-09-08T12:31:27.485Z,47.00
2018-09-08T12:33:57.835Z,47.50
2018-09-08T12:36:29.744Z,47.50
2018-09-08T12:39:00.739Z,46.90
2018-09-08T12:41:32.294Z,46.90
2018-09-08T12:44:04.250Z,46.60
2018-09-08T12:46:34.976Z,46.60
2018-09-08T12:49:05.518Z,46.60
2018-09-08T12:51:36.070Z,46.60
2018-09-08T12:54:07.101Z,46.20
2018-09-08T12:56:37.371Z,46.10
2018-09-08T12:59:07.909Z,46.00
2018-09-08T13:01:38.507Z,45.80
2018-09-08T13:04:09.538Z,45.50
2018-09-08T13:06:40.238Z,45.50
2018-09-08T13:09:10.733Z,45.60
2018-09-08T13:11:41.031Z,45.80
2018-09-08T13:14:11.448Z,45.20
2018-09-08T13:16:41.895Z,45.50
2018-09-08T13:19:12.038Z,45.30
2018-09-08T13:21:42.270Z,45.30
2018-09-08T13:24:12.475Z,45.40
2018-09-08T13:26:43.117Z,45.30
2018-09-08T13:29:13.464Z,45.00
2018-09-08T13:31:43.621Z,44.90
2018-09-08T13:34:13.933Z,45.00
2018-09-08T13:36:49.029Z,45.00
2018-09-08T13:39:19.285Z,45.40
2018-09-08T13:41:49.568Z,44.80
2018-09-08T13:44:19.886Z,44.10
2018-09-08T13:46:50.379Z,44.50
2018-09-08T13:49:20.513Z,44.40
2018-09-08T13:51:50.752Z,44.30
2018-09-08T13:54:21.554Z,44.00
2018-09-08T13:56:51.769Z,44.20
2018-09-08T13:59:21.933Z,44.30
2018-09-08T14:01:52.153Z,44.00
2018-09-08T14:04:22.321Z,44.10
2018-09-08T14:06:52.548Z,44.00
2018-09-08T14:09:22.776Z,44.00
2018-09-08T14:11:53.122Z,44.00
2018-09-08T14:14:23.334Z,44.10
2018-09-08T14:16:53.495Z,44.20
2018-09-08T14:19:23.658Z,44.00
2018-09-08T14:21:53.999Z,43.80
2018-09-08T14:24:25.240Z,43.50
2018-09-08T14:26:59.610Z,43.00
2018-09-08T14:29:43.792Z,42.70
2018-09-08T14:32:14.099Z,43.50
2018-09-08T14:34:44.348Z,43.80
2018-09-08T14:37:16.478Z,43.20
2018-09-08T14:39:47.112Z,43.40
2018-09-08T14:42:17.389Z,42.90
2018-09-08T14:44:47.645Z,43.00
2018-09-08T14:47:18.098Z,43.30
2018-09-08T14:49:48.763Z,43.20
2018-09-08T14:52:19.149Z,43.20
2018-09-08T14:54:50.542Z,43.00
2018-09-08T14:57:20.800Z,42.80
2018-09-08T14:59:50.989Z,42.50
2018-09-08T15:02:21.115Z,42.30
2018-09-08T15:04:57.127Z,42.60
2018-09-08T15:07:30.767Z,41.70
2018-09-08T15:10:11.123Z,42.40
2018-09-08T15:12:42.940Z,41.70
2018-09-08T15:15:13.385Z,42.50
2018-09-08T15:17:43.993Z,42.40
2018-09-08T15:20:14.418Z,42.30
2018-09-08T15:22:44.781Z,41.90
2018-09-08T16:32:15.690Z,41.80
2018-09-08T16:34:57.890Z,43.40
2018-09-08T16:37:28.437Z,43.20
2018-09-08T16:43:48.633Z,43.40
2018-09-08T17:42:56.910Z,42.50
2018-09-08T17:45:27.555Z,45.40
2018-09-08T17:51:25.220Z,45.70
2018-09-08T17:53:55.665Z,45.60
2018-09-08T17:56:43.104Z,46.00
2018-09-08T17:59:13.503Z,46.00
2018-09-08T18:04:43.535Z,46.30
2018-09-08T18:07:17.021Z,45.70
2018-09-08T18:09:52.898Z,46.50
2018-09-08T18:12:24.968Z,45.80
2018-09-08T18:15:48.103Z,45.80
2018-09-08T18:18:25.788Z,46.30
2018-09-08T18:20:56.664Z,46.50
2018-09-08T18:23:27.665Z,46.10
2018-09-08T18:25:58.250Z,46.40
2018-09-08T18:28:30.050Z,46.60
2018-09-08T18:31:00.831Z,46.70
2018-09-08T18:33:31.410Z,47.10
2018-09-08T18:42:11.964Z,47.20
2018-09-08T18:44:42.804Z,47.00
2018-09-08T18:47:13.505Z,46.90
2018-09-08T18:49:44.437Z,47.20
2018-09-08T18:52:42.621Z,46.90
2018-09-08T18:55:29.498Z,47.40
2018-09-08T18:58:00.106Z,47.20
2018-09-08T19:00:30.810Z,47.60
2018-09-08T19:03:01.497Z,47.70
2018-09-08T19:05:32.293Z,47.60
2018-09-08T19:08:21.441Z,47.70
2018-09-08T19:11:00.741Z,47.60
2018-09-08T19:13:31.452Z,47.70
2018-09-08T19:16:03.000Z,47.80
2018-09-08T19:18:36.017Z,48.00
2018-09-08T19:21:06.587Z,47.60
2018-09-08T19:23:57.200Z,48.70
2018-09-08T19:26:27.857Z,48.20
2018-09-08T19:29:04.875Z,47.70
2018-09-08T19:31:55.992Z,48.00
2018-09-08T19:34:50.283Z,48.20
2018-09-08T19:37:25.686Z,48.40
2018-09-08T19:39:56.681Z,47.80
2018-09-08T19:42:28.289Z,47.50
2018-09-08T19:44:58.946Z,48.20
2018-09-08T19:47:34.354Z,48.20
2018-09-08T19:50:04.738Z,48.40
2018-09-08T19:52:40.218Z,48.80
2018-09-08T19:55:10.903Z,48.30
2018-09-08T19:57:46.512Z,48.60
2018-09-08T20:00:27.365Z,48.50
2018-09-08T20:02:57.978Z,48.90
2018-09-08T20:05:28.524Z,48.80
2018-09-08T20:07:59.601Z,48.90
2018-09-08T20:10:41.135Z,48.60
2018-09-08T20:13:12.153Z,48.90
2018-09-08T20:15:43.175Z,48.70
2018-09-08T20:18:13.574Z,48.70
2018-09-08T20:20:44.066Z,49.10
2018-09-08T20:23:14.545Z,49.20
2018-09-08T20:25:45.006Z,49.20
2018-09-08T20:28:15.543Z,49.20
2018-09-08T20:30:46.317Z,49.30
2018-09-08T20:33:17.590Z,49.10
2018-09-08T20:35:48.427Z,49.20
2018-09-08T20:38:18.788Z,49.20
2018-09-08T20:40:49.254Z,49.40
2018-09-08T20:43:19.654Z,49.50
2018-09-08T20:45:50.240Z,50.00
2018-09-08T20:48:20.628Z,49.60
2018-09-08T20:50:51.147Z,49.40
2018-09-08T20:53:21.737Z,49.50
2018-09-08T20:55:52.258Z,49.40
2018-09-08T20:58:22.671Z,49.80
2018-09-08T21:00:53.350Z,49.80
2018-09-08T21:03:23.874Z,49.90
2018-09-08T21:05:54.480Z,49.90
2018-09-08T21:08:24.837Z,50.00
2018-09-08T21:10:55.402Z,50.00
2018-09-08T21:13:25.869Z,50.70
2018-09-08T21:15:56.685Z,50.00
2018-09-08T21:18:27.313Z,50.00
2018-09-08T21:20:57.939Z,50.10
2018-09-08T21:23:28.745Z,50.00
2018-09-08T21:25:59.242Z,50.30
2018-09-08T21:28:29.696Z,50.30
2018-09-08T21:31:00.188Z,50.30
2018-09-08T21:33:30.579Z,50.30
2018-09-08T21:36:01.110Z,50.40
2018-09-08T21:38:31.726Z,50.50
2018-09-08T21:41:02.182Z,50.40
2018-09-08T21:43:32.542Z,50.50
2018-09-08T21:46:02.954Z,50.40
2018-09-08T21:48:33.283Z,50.60
2018-09-08T21:51:03.849Z,50.60
2018-09-08T21:53:34.251Z,50.60
2018-09-08T21:56:04.735Z,50.70
2018-09-08T21:58:35.101Z,50.80
2018-09-08T22:01:10.538Z,51.00
2018-09-08T22:03:40.955Z,50.90
2018-09-08T22:06:11.382Z,50.90
2018-09-08T22:08:41.693Z,51.10
2018-09-08T22:11:12.371Z,51.10
2018-09-08T22:13:42.752Z,50.80
2018-09-08T22:16:13.599Z,51.70
2018-09-08T22:18:43.882Z,51.00
2018-09-08T22:21:14.430Z,51.20
2018-09-08T22:23:44.765Z,51.20
2018-09-08T22:26:15.479Z,51.30
2018-09-08T22:28:45.773Z,51.00
2018-09-08T22:31:16.098Z,51.40
2018-09-08T22:33:46.633Z,51.60
2018-09-08T22:36:17.168Z,51.40
2018-09-08T22:38:47.673Z,51.30
2018-09-08T22:41:18.156Z,51.40
2018-09-08T22:43:48.589Z,51.40
2018-09-08T22:46:18.843Z,51.60
2018-09-08T22:48:49.154Z,51.60
2018-09-08T22:51:19.449Z,51.60
2018-09-08T22:53:50.041Z,51.60
2018-09-08T22:56:20.427Z,51.60
2018-09-08T22:58:50.884Z,51.70
2018-09-08T23:01:21.194Z,52.40
2018-09-08T23:03:51.862Z,51.80
2018-09-08T23:06:22.200Z,51.90
2018-09-08T23:08:52.577Z,52.00
2018-09-08T23:11:22.912Z,51.90
2018-09-08T23:13:53.425Z,51.80
2018-09-08T23:16:23.787Z,51.80
2018-09-08T23:18:54.412Z,51.90
2018-09-08T23:21:24.763Z,52.50
2018-09-08T23:23:55.069Z,52.10
2018-09-08T23:26:25.310Z,52.00
2018-09-08T23:28:55.613Z,52.00
2018-09-08T23:31:25.970Z,52.10
2018-09-08T23:33:56.261Z,52.20
2018-09-08T23:36:26.666Z,52.20
2018-09-08T23:38:56.933Z,52.30
2018-09-08T23:41:27.225Z,52.20
2018-09-08T23:43:57.667Z,52.30
2018-09-08T23:46:27.914Z,52.30
2018-09-08T23:48:58.268Z,52.40
2018-09-08T23:51:28.603Z,52.40
2018-09-08T23:53:59.057Z,52.40
2018-09-08T23:56:29.495Z,52.40
2018-09-08T23:58:59.817Z,52.30
